createdAt,value
2022-07-29T00:02:00.217Z,440.27
2022-07-29T00:04:31.670Z,438.88
2022-07-29T00:07:03.327Z,424.75
2022-07-29T00:09:42.960Z,440.58
2022-07-29T00:12:26.471Z,427.80
2022-07-29T00:14:58.893Z,432.02
2022-07-29T00:17:30.517Z,452.13
2022-07-29T00:20:01.785Z,431.45
2022-07-29T00:22:33.608Z,429.05
2022-07-29T00:25:08.322Z,427.88
2022-07-29T00:27:40.758Z,427.50
2022-07-29T00:32:43.989Z,428.90
2022-07-29T00:35:27.690Z,421.15
2022-07-29T00:37:59.338Z,429.48
2022-07-29T00:40:33.315Z,441.30
2022-07-29T00:43:05.591Z,424.48
2022-07-29T00:45:36.993Z,432.77
2022-07-29T00:48:09.983Z,426.40
2022-07-29T00:50:43.212Z,419.25
2022-07-29T00:53:16.822Z,421.48
2022-07-29T00:55:52.735Z,420.73
2022-07-29T00:58:25.265Z,423.08
2022-07-29T01:00:57.185Z,418.30
2022-07-29T01:06:00.315Z,415.58
2022-07-29T01:11:06.305Z,401.23
2022-07-29T01:13:38.485Z,398.10
2022-07-29T01:16:17.060Z,426.13
2022-07-29T01:18:51.522Z,422.42
2022-07-29T01:21:48.846Z,425.25
2022-07-29T01:24:37.470Z,420.15
2022-07-29T01:27:24.074Z,429.33
2022-07-29T01:30:01.769Z,429.80
2022-07-29T01:32:40.278Z,429.90
2022-07-29T01:35:20.903Z,416.08
2022-07-29T01:37:59.546Z,410.35
2022-07-29T01:40:37.418Z,420.88
2022-07-29T01:43:14.521Z,418.00
2022-07-29T01:45:52.820Z,416.00
2022-07-29T01:48:27.293Z,412.92
2022-07-29T01:51:08.362Z,403.80
2022-07-29T01:53:46.486Z,406.92
2022-07-29T01:56:20.706Z,429.48
2022-07-29T01:58:53.122Z,425.42
2022-07-29T02:01:29.731Z,433.02
2022-07-29T02:04:03.439Z,423.40
2022-07-29T02:06:39.197Z,431.38
2022-07-29T02:09:12.161Z,423.38
2022-07-29T02:11:46.886Z,417.38
2022-07-29T02:14:19.811Z,417.80
2022-07-29T02:16:58.196Z,414.88
2022-07-29T02:19:31.355Z,408.95
2022-07-29T02:22:03.922Z,422.65
2022-07-29T02:24:35.442Z,425.50
2022-07-29T02:27:08.425Z,415.75
2022-07-29T02:29:40.759Z,422.75
2022-07-29T02:32:17.754Z,430.60
2022-07-29T02:34:50.431Z,408.55
2022-07-29T02:37:23.549Z,418.42
2022-07-29T02:39:57.821Z,421.35
2022-07-29T02:42:31.490Z,427.08
2022-07-29T02:45:02.742Z,435.83
2022-07-29T02:47:43.827Z,422.77
2022-07-29T02:50:19.318Z,423.90
2022-07-29T02:52:58.286Z,411.88
2022-07-29T02:55:33.711Z,419.45
2022-07-29T02:58:07.404Z,428.38
2022-07-29T03:00:42.465Z,430.20
2022-07-29T03:03:21.202Z,424.67
2022-07-29T03:05:52.538Z,421.17
2022-07-29T03:08:24.738Z,417.50
2022-07-29T03:10:56.896Z,427.23
2022-07-29T03:13:29.764Z,432.48
2022-07-29T03:16:01.936Z,430.90
2022-07-29T03:18:37.225Z,429.85
2022-07-29T03:21:08.804Z,423.60
2022-07-29T03:23:40.348Z,426.10
2022-07-29T03:26:11.638Z,423.65
2022-07-29T03:28:43.284Z,426.13
2022-07-29T03:31:14.593Z,419.45
2022-07-29T03:33:48.661Z,428.98
2022-07-29T03:36:19.940Z,427.90
2022-07-29T03:38:52.724Z,419.30
2022-07-29T03:41:26.521Z,432.55
2022-07-29T03:43:59.075Z,423.23
2022-07-29T03:46:32.782Z,424.50
2022-07-29T03:49:09.386Z,423.80
2022-07-29T03:51:41.113Z,420.30
2022-07-29T03:54:12.816Z,425.83
2022-07-29T03:56:47.885Z,427.08
2022-07-29T03:59:21.650Z,418.05
2022-07-29T04:01:53.995Z,424.65
2022-07-29T04:04:29.407Z,409.73
2022-07-29T04:07:00.658Z,414.88
2022-07-29T04:09:32.137Z,414.55
2022-07-29T04:12:04.401Z,422.88
2022-07-29T04:14:37.006Z,416.33
2022-07-29T04:19:42.945Z,417.30
2022-07-29T04:22:14.151Z,404.75
2022-07-29T04:24:45.562Z,419.15
2022-07-29T04:27:16.662Z,422.48
2022-07-29T04:29:56.721Z,426.58
2022-07-29T04:32:28.796Z,443.13
2022-07-29T04:35:02.849Z,451.58
2022-07-29T04:37:34.137Z,452.35
2022-07-29T04:40:05.706Z,433.73
2022-07-29T04:42:45.059Z,445.42
2022-07-29T04:45:22.532Z,440.48
2022-07-29T04:47:54.232Z,431.00
2022-07-29T04:50:28.669Z,440.88
2022-07-29T04:52:59.913Z,447.38
2022-07-29T04:55:31.462Z,446.02
2022-07-29T04:58:02.787Z,465.52
2022-07-29T05:00:34.248Z,466.02
2022-07-29T05:03:05.502Z,473.00
2022-07-29T05:05:40.708Z,484.38
2022-07-29T05:08:12.033Z,492.15
2022-07-29T05:10:43.591Z,485.77
2022-07-29T05:13:14.894Z,505.67
2022-07-29T05:15:46.594Z,503.15
2022-07-29T05:18:18.026Z,503.77
2022-07-29T05:20:52.172Z,501.33
2022-07-29T05:23:23.429Z,496.67
2022-07-29T05:25:54.996Z,513.40
2022-07-29T05:28:26.212Z,519.75
2022-07-29T05:30:57.780Z,525.03
2022-07-29T05:33:35.091Z,526.65
2022-07-29T05:36:11.408Z,536.60
2022-07-29T05:38:42.974Z,534.53
2022-07-29T05:41:14.513Z,529.33
2022-07-29T05:43:45.734Z,538.10
2022-07-29T05:46:17.876Z,532.92
2022-07-29T05:48:49.262Z,530.38
2022-07-29T05:51:23.630Z,535.00
2022-07-29T05:53:54.958Z,533.83
2022-07-29T05:56:26.466Z,535.78
2022-07-29T05:58:58.027Z,547.60
2022-07-29T06:01:30.080Z,539.50
2022-07-29T06:06:35.386Z,539.67
2022-07-29T06:09:12.229Z,550.13
2022-07-29T06:11:44.240Z,539.60
2022-07-29T06:14:15.806Z,553.13
2022-07-29T06:16:47.637Z,545.08
2022-07-29T06:19:18.972Z,547.17
2022-07-29T06:21:53.131Z,551.65
2022-07-29T06:24:24.383Z,553.03
2022-07-29T06:29:26.910Z,551.42
2022-07-29T06:31:58.388Z,554.63
2022-07-29T06:34:29.652Z,562.72
2022-07-29T06:37:09.267Z,559.70
2022-07-29T06:39:47.209Z,560.58
2022-07-29T06:42:18.811Z,559.88
2022-07-29T06:44:51.779Z,558.08
2022-07-29T06:49:54.340Z,549.70
2022-07-29T06:52:28.524Z,551.60
2022-07-29T06:55:00.825Z,554.20
2022-07-29T06:57:32.288Z,552.42
2022-07-29T07:00:05.488Z,561.03
2022-07-29T07:02:37.142Z,568.97
2022-07-29T07:05:10.087Z,567.83
2022-07-29T07:07:44.340Z,556.28
2022-07-29T07:10:16.039Z,567.85
2022-07-29T07:12:47.684Z,564.97
2022-07-29T07:15:22.871Z,567.55
2022-07-29T07:18:11.028Z,568.53
2022-07-29T07:20:42.332Z,572.90
2022-07-29T07:23:16.496Z,572.50
2022-07-29T07:25:47.684Z,559.05
2022-07-29T07:28:19.236Z,568.13
2022-07-29T07:30:56.422Z,575.88
2022-07-29T07:33:28.044Z,573.10
2022-07-29T07:35:59.671Z,573.78
2022-07-29T07:38:33.810Z,562.47
2022-07-29T07:41:05.597Z,561.42
2022-07-29T07:43:37.127Z,564.90
2022-07-29T07:46:08.620Z,562.97
2022-07-29T07:48:40.718Z,567.28
2022-07-29T07:51:12.811Z,562.75
2022-07-29T07:53:50.588Z,564.65
2022-07-29T07:56:22.125Z,561.53
2022-07-29T07:58:54.357Z,555.85
2022-07-29T08:01:25.798Z,564.22
2022-07-29T08:03:57.564Z,567.60
2022-07-29T08:06:28.941Z,564.33
2022-07-29T08:09:26.650Z,565.00
2022-07-29T08:11:54.610Z,571.95
2022-07-29T08:16:56.954Z,552.13
2022-07-29T08:19:28.694Z,569.00
2022-07-29T08:21:59.934Z,567.63
2022-07-29T08:24:46.382Z,564.25
2022-07-29T08:27:41.931Z,564.38
2022-07-29T08:30:11.830Z,564.35
2022-07-29T08:32:53.615Z,580.83
2022-07-29T08:35:30.926Z,564.75
2022-07-29T08:38:04.693Z,572.35
2022-07-29T08:43:10.741Z,576.45
2022-07-29T08:45:48.575Z,574.55
2022-07-29T08:48:22.216Z,578.95
2022-07-29T08:51:01.627Z,578.75
2022-07-29T08:53:34.292Z,579.03
2022-07-29T08:56:09.970Z,582.20
2022-07-29T08:58:41.225Z,576.83
2022-07-29T09:01:15.825Z,582.35
2022-07-29T09:03:50.045Z,587.65
2022-07-29T09:06:27.762Z,588.70
2022-07-29T09:09:02.280Z,591.83
2022-07-29T09:11:36.736Z,584.28
2022-07-29T09:14:08.097Z,588.83
2022-07-29T09:19:32.804Z,578.00
2022-07-29T09:22:06.340Z,577.28
2022-07-29T09:24:43.187Z,592.42
2022-07-29T09:27:27.099Z,593.00
2022-07-29T09:30:02.580Z,585.75
2022-07-29T09:32:35.630Z,583.33
2022-07-29T09:37:51.758Z,581.22
2022-07-29T09:40:24.689Z,581.83
2022-07-29T09:42:59.491Z,586.72
2022-07-29T09:45:33.165Z,587.95
2022-07-29T09:48:18.406Z,576.42
2022-07-29T09:50:50.928Z,587.75
2022-07-29T09:53:36.301Z,589.38
2022-07-29T09:56:08.736Z,587.50
2022-07-29T09:58:43.852Z,589.78
2022-07-29T10:01:16.236Z,585.40
2022-07-29T10:03:57.078Z,589.72
2022-07-29T10:06:28.372Z,587.92
2022-07-29T10:09:12.178Z,588.28
2022-07-29T10:11:49.487Z,588.63
2022-07-29T10:14:24.114Z,583.33
2022-07-29T10:16:55.599Z,588.38
2022-07-29T10:19:27.579Z,591.08
2022-07-29T10:22:00.175Z,595.17
2022-07-29T10:24:33.690Z,578.72
2022-07-29T10:27:06.857Z,590.67
2022-07-29T10:29:41.149Z,589.50
2022-07-29T10:32:27.611Z,587.85
2022-07-29T10:35:42.421Z,574.00
2022-07-29T10:38:48.070Z,588.08
2022-07-29T10:41:44.733Z,585.13
2022-07-29T10:44:23.198Z,579.25
2022-07-29T10:46:58.498Z,579.65
2022-07-29T10:49:31.699Z,592.20
2022-07-29T10:52:06.875Z,581.92
2022-07-29T10:54:47.389Z,598.72
2022-07-29T10:57:21.878Z,586.13
2022-07-29T11:00:36.310Z,585.00
2022-07-29T11:03:11.792Z,588.05
2022-07-29T11:05:59.804Z,590.63
2022-07-29T11:08:32.021Z,592.78
2022-07-29T11:11:37.999Z,597.00
2022-07-29T11:14:10.662Z,591.58
2022-07-29T11:17:06.928Z,593.03
2022-07-29T11:19:46.801Z,591.42
2022-07-29T11:22:36.658Z,595.33
2022-07-29T11:25:17.827Z,589.85
2022-07-29T11:27:50.032Z,587.37
2022-07-29T11:30:25.118Z,590.78
2022-07-29T11:32:56.542Z,583.28
2022-07-29T11:35:38.260Z,590.05
2022-07-29T11:38:31.879Z,592.53
2022-07-29T11:41:27.132Z,586.17
2022-07-29T11:44:01.572Z,586.88
2022-07-29T11:46:50.976Z,592.15
2022-07-29T11:49:32.408Z,592.58
2022-07-29T11:52:08.321Z,587.50
2022-07-29T11:54:58.095Z,586.63
2022-07-29T11:57:35.965Z,599.40
2022-07-29T12:00:12.526Z,598.50
2022-07-29T12:02:48.458Z,588.83
2022-07-29T12:10:48.144Z,602.90
2022-07-29T12:13:22.397Z,602.13
2022-07-29T12:15:59.763Z,596.65
2022-07-29T12:18:31.905Z,603.00
2022-07-29T12:21:05.365Z,598.22
2022-07-29T12:23:39.627Z,600.58
2022-07-29T12:26:25.499Z,601.83
2022-07-29T12:28:57.814Z,598.00
2022-07-29T12:31:42.230Z,603.70
2022-07-29T12:34:16.390Z,599.90
2022-07-29T12:36:47.999Z,601.22
2022-07-29T12:39:22.866Z,594.33
2022-07-29T12:41:54.239Z,593.47
2022-07-29T12:44:50.526Z,593.15
2022-07-29T12:47:23.224Z,598.78
2022-07-29T12:50:10.842Z,591.17
2022-07-29T12:52:42.169Z,598.80
2022-07-29T12:55:16.482Z,608.97
2022-07-29T12:57:51.841Z,603.88
2022-07-29T13:00:27.742Z,600.13
2022-07-29T13:03:00.173Z,597.22
2022-07-29T13:05:49.154Z,606.35
2022-07-29T13:08:22.916Z,593.60
2022-07-29T13:10:57.555Z,607.60
2022-07-29T13:13:28.845Z,599.35
2022-07-29T13:16:11.730Z,601.05
2022-07-29T13:18:42.992Z,605.67
2022-07-29T13:21:16.133Z,603.80
2022-07-29T13:23:47.807Z,607.38
2022-07-29T13:26:22.058Z,596.88
2022-07-29T13:28:53.344Z,606.00
2022-07-29T13:31:25.837Z,604.13
2022-07-29T13:33:57.541Z,605.17
2022-07-29T13:36:29.110Z,600.58
2022-07-29T13:39:02.292Z,611.97
2022-07-29T13:41:36.616Z,602.85
2022-07-29T13:44:08.486Z,604.15
2022-07-29T13:46:40.254Z,599.83
2022-07-29T13:51:44.160Z,603.03
2022-07-29T13:54:15.691Z,608.60
2022-07-29T13:56:49.997Z,608.13
2022-07-29T13:59:21.294Z,597.67
2022-07-29T14:01:53.218Z,601.65
2022-07-29T14:04:24.703Z,591.95
2022-07-29T14:06:56.384Z,600.35
2022-07-29T14:09:27.701Z,606.65
2022-07-29T14:12:03.610Z,603.00
2022-07-29T14:14:38.054Z,601.20
2022-07-29T14:17:10.195Z,598.95
2022-07-29T14:19:41.759Z,598.25
2022-07-29T14:22:13.799Z,597.90
2022-07-29T14:24:45.317Z,600.97
2022-07-29T14:27:20.110Z,594.35
2022-07-29T14:30:11.253Z,601.63
2022-07-29T14:32:43.029Z,598.75
2022-07-29T14:35:34.393Z,598.28
2022-07-29T14:40:37.644Z,601.53
2022-07-29T14:43:11.901Z,599.03
2022-07-29T14:45:43.346Z,598.55
2022-07-29T14:48:15.178Z,601.13
2022-07-29T14:53:17.842Z,597.80
2022-07-29T14:58:23.848Z,585.97
2022-07-29T15:00:55.881Z,600.08
2022-07-29T15:03:29.009Z,603.60
2022-07-29T15:06:00.697Z,595.47
2022-07-29T15:08:32.473Z,597.28
2022-07-29T15:13:37.848Z,595.92
2022-07-29T15:16:10.402Z,598.72
2022-07-29T15:18:43.312Z,605.08
2022-07-29T15:21:15.335Z,604.55
2022-07-29T15:23:47.098Z,596.05
2022-07-29T15:26:19.227Z,600.83
2022-07-29T15:28:53.686Z,594.45
2022-07-29T15:31:25.277Z,605.83
2022-07-29T15:33:59.444Z,601.58
2022-07-29T15:39:25.200Z,605.80
2022-07-29T15:41:56.797Z,598.05
2022-07-29T15:44:31.112Z,604.80
2022-07-29T15:47:09.095Z,605.13
2022-07-29T15:49:46.676Z,595.58
2022-07-29T15:52:25.760Z,597.75
2022-07-29T15:54:58.744Z,605.05
2022-07-29T15:57:29.970Z,601.63
2022-07-29T16:02:39.295Z,596.92
2022-07-29T16:05:11.119Z,592.10
2022-07-29T16:10:13.409Z,588.40
2022-07-29T16:12:44.719Z,581.28
2022-07-29T16:17:50.582Z,591.40
2022-07-29T16:20:22.565Z,586.75
2022-07-29T16:22:54.083Z,587.50
2022-07-29T16:25:49.997Z,592.67
2022-07-29T16:30:00.246Z,648.58
2022-07-29T16:32:33.857Z,640.72
2022-07-29T16:35:05.588Z,646.28
2022-07-29T16:37:38.191Z,646.05
2022-07-29T16:40:11.987Z,651.83
2022-07-29T16:42:47.081Z,652.10
2022-07-29T16:45:21.655Z,651.35
2022-07-29T16:47:57.202Z,648.38
2022-07-29T16:50:31.935Z,650.25
2022-07-29T16:53:03.788Z,643.17
2022-07-29T16:55:35.290Z,642.85
2022-07-29T16:58:07.181Z,651.30
2022-07-29T17:00:41.985Z,649.67
2022-07-29T17:03:13.670Z,651.60
2022-07-29T17:05:52.338Z,647.17
2022-07-29T17:08:26.522Z,645.00
2022-07-29T17:10:57.880Z,643.72
2022-07-29T17:16:02.867Z,650.55
2022-07-29T17:18:34.520Z,645.40
2022-07-29T17:21:06.042Z,647.50
2022-07-29T17:23:37.607Z,643.25
2022-07-29T17:26:09.012Z,643.05
2022-07-29T17:28:40.945Z,648.00
2022-07-29T17:31:15.896Z,638.25
2022-07-29T17:33:47.522Z,643.58
2022-07-29T17:36:28.013Z,638.83
2022-07-29T17:39:00.802Z,640.27
2022-07-29T17:41:32.307Z,639.50
2022-07-29T17:44:04.064Z,644.47
2022-07-29T17:46:38.183Z,640.08
2022-07-29T17:49:10.266Z,636.90
2022-07-29T17:51:41.697Z,640.40
2022-07-29T17:54:13.453Z,645.10
2022-07-29T17:59:16.126Z,636.63
2022-07-29T18:01:50.072Z,643.30
2022-07-29T18:04:23.636Z,646.97
2022-07-29T18:06:54.954Z,642.60
2022-07-29T18:09:26.668Z,645.42
2022-07-29T18:11:58.011Z,639.38
2022-07-29T18:14:29.575Z,639.88
2022-07-29T18:17:03.513Z,639.28
2022-07-29T18:19:35.023Z,644.60
2022-07-29T18:22:07.625Z,641.58
2022-07-29T18:24:39.299Z,635.70
2022-07-29T18:27:11.094Z,636.88
2022-07-29T18:29:42.625Z,635.28
2022-07-29T18:32:16.493Z,636.95
2022-07-29T18:34:48.178Z,635.60
2022-07-29T18:37:19.433Z,635.80
2022-07-29T18:40:13.199Z,642.88
2022-07-29T18:42:44.425Z,640.50
2022-07-29T18:47:53.611Z,635.78
2022-07-29T18:50:29.288Z,638.30
2022-07-29T18:53:03.471Z,640.20
2022-07-29T18:55:34.966Z,643.60
2022-07-29T18:58:06.303Z,642.20
2022-07-29T19:00:37.930Z,637.88
2022-07-29T19:03:12.108Z,641.53
2022-07-29T19:05:43.646Z,643.90
2022-07-29T19:08:14.930Z,641.47
2022-07-29T19:10:46.702Z,642.13
2022-07-29T19:13:18.101Z,634.92
2022-07-29T19:18:23.117Z,636.95
2022-07-29T19:20:54.734Z,633.95
2022-07-29T19:23:26.107Z,641.72
2022-07-29T19:28:29.079Z,632.63
2022-07-29T19:31:00.854Z,632.53
2022-07-29T19:33:34.928Z,640.25
2022-07-29T19:36:06.592Z,630.90
2022-07-29T19:38:38.418Z,641.83
2022-07-29T19:41:09.834Z,639.65
2022-07-29T19:43:51.149Z,636.58
2022-07-29T19:46:24.493Z,641.53
2022-07-29T19:48:59.014Z,640.13
2022-07-29T19:51:30.785Z,642.55
2022-07-29T19:54:02.130Z,645.53
2022-07-29T19:56:33.587Z,644.13
2022-07-29T19:59:07.284Z,640.40
2022-07-29T20:01:39.776Z,636.60
2022-07-29T20:04:13.693Z,641.15
2022-07-29T20:06:45.506Z,641.10
2022-07-29T20:09:20.361Z,637.13
2022-07-29T20:11:52.309Z,639.42
2022-07-29T20:14:23.718Z,645.55
2022-07-29T20:16:56.028Z,631.90
2022-07-29T20:19:31.058Z,639.15
2022-07-29T20:22:02.786Z,640.35
2022-07-29T20:24:34.425Z,635.78
2022-07-29T20:27:13.719Z,642.55
2022-07-29T20:29:45.560Z,640.03
2022-07-29T20:32:17.045Z,639.33
2022-07-29T20:34:50.909Z,641.88
2022-07-29T20:37:22.436Z,637.92
2022-07-29T20:39:53.628Z,638.42
2022-07-29T20:42:25.268Z,634.72
2022-07-29T20:44:58.089Z,643.35
2022-07-29T20:47:29.604Z,639.38
2022-07-29T20:50:03.964Z,638.15
2022-07-29T20:52:35.648Z,633.45
2022-07-29T20:55:07.757Z,632.65
2022-07-29T20:57:40.130Z,636.08
2022-07-29T21:00:12.665Z,631.20
2022-07-29T21:02:44.367Z,636.83
2022-07-29T21:05:18.291Z,629.88
2022-07-29T21:07:50.090Z,626.42
2022-07-29T21:10:21.684Z,635.10
2022-07-29T21:12:53.247Z,638.70
2022-07-29T21:15:24.920Z,638.45
2022-07-29T21:18:00.751Z,636.53
2022-07-29T21:20:34.729Z,643.00
2022-07-29T21:23:07.917Z,640.38
2022-07-29T21:25:39.493Z,639.95
2022-07-29T21:28:23.312Z,633.97
2022-07-29T21:30:54.608Z,643.28
2022-07-29T21:33:26.488Z,640.70
2022-07-29T21:36:42.438Z,637.78
2022-07-29T21:38:52.137Z,634.85
2022-07-29T21:41:23.372Z,630.67
2022-07-29T21:43:55.052Z,638.35
2022-07-29T21:46:29.796Z,635.17
2022-07-29T21:49:01.252Z,632.80
2022-07-29T21:51:35.206Z,639.20
2022-07-29T21:54:07.043Z,641.70
2022-07-29T21:56:39.693Z,638.80
2022-07-29T21:59:12.946Z,631.40
2022-07-29T22:01:44.425Z,634.00
2022-07-29T22:04:16.069Z,628.10
2022-07-29T22:06:50.070Z,641.35
2022-07-29T22:09:21.676Z,637.60
2022-07-29T22:11:53.041Z,640.38
2022-07-29T22:14:24.629Z,636.40
2022-07-29T22:16:58.305Z,641.55
2022-07-29T22:19:30.349Z,638.22
2022-07-29T22:22:04.969Z,635.72
2022-07-29T22:24:36.900Z,637.05
2022-07-29T22:27:08.627Z,633.13
2022-07-29T22:29:40.302Z,630.28
2022-07-29T22:32:11.604Z,640.65
2022-07-29T22:34:43.054Z,636.63
2022-07-29T22:37:16.908Z,633.28
2022-07-29T22:39:48.445Z,635.30
2022-07-29T22:42:19.825Z,632.30
2022-07-29T22:47:46.243Z,632.75
2022-07-29T22:50:13.748Z,630.38
2022-07-29T22:52:47.707Z,622.22
2022-07-29T22:55:19.210Z,635.20
2022-07-29T22:57:50.448Z,629.17
2022-07-29T23:00:22.207Z,632.50
2022-07-29T23:02:53.440Z,628.17
2022-07-29T23:05:24.944Z,629.08
2022-07-29T23:07:58.831Z,635.63
2022-07-29T23:10:30.808Z,625.20
2022-07-29T23:13:02.115Z,629.85
2022-07-29T23:18:04.521Z,625.17
2022-07-29T23:20:36.320Z,632.08
2022-07-29T23:23:10.104Z,638.25
2022-07-29T23:25:41.627Z,632.83
2022-07-29T23:28:13.402Z,630.85
2022-07-29T23:30:45.433Z,632.85
2022-07-29T23:33:16.706Z,634.75
2022-07-29T23:35:48.316Z,636.97
2022-07-29T23:38:22.167Z,632.03
2022-07-29T23:40:53.923Z,636.95
2022-07-29T23:43:25.241Z,628.85
2022-07-29T23:45:58.089Z,635.13
2022-07-29T23:48:31.959Z,630.00
2022-07-29T23:51:03.525Z,628.60
2022-07-29T23:53:38.906Z,629.22
2022-07-29T23:56:25.885Z,627.53
2022-07-29T23:58:57.303Z,638.67
